createdAt,value
2023-03-17T00:00:30.687Z,82.15
2023-03-17T00:01:30.534Z,82.68
2023-03-17T00:02:30.571Z,82.12
2023-03-17T00:03:30.556Z,81.49
2023-03-17T00:04:30.525Z,80.87
2023-03-17T00:05:30.513Z,80.56
2023-03-17T00:06:30.529Z,80.66
2023-03-17T00:07:30.500Z,80.56
2023-03-17T00:08:30.486Z,80.46
2023-03-17T00:09:30.521Z,80.63
2023-03-17T00:10:30.640Z,80.15
2023-03-17T00:11:30.472Z,80.42
2023-03-17T00:12:30.540Z,80.42
2023-03-17T00:13:30.473Z,80.00
2023-03-17T00:14:30.466Z,80.00
2023-03-17T00:15:30.439Z,79.55
2023-03-17T00:16:30.435Z,79.58
2023-03-17T00:17:30.417Z,79.44
2023-03-17T00:18:30.436Z,79.03
2023-03-17T00:19:30.454Z,79.13
2023-03-17T00:20:30.657Z,78.47
2023-03-17T00:21:30.421Z,78.20
2023-03-17T00:22:30.404Z,77.54
2023-03-17T00:23:30.380Z,77.30
2023-03-17T00:24:30.452Z,79.55
2023-03-17T00:25:30.376Z,81.50
2023-03-17T00:26:30.376Z,82.65
2023-03-17T00:27:30.395Z,83.27
2023-03-17T00:28:30.361Z,82.23
2023-03-17T00:29:30.363Z,82.40
2023-03-17T00:30:30.587Z,82.30
2023-03-17T00:31:30.410Z,82.92
2023-03-17T00:32:30.366Z,82.51
2023-03-17T00:33:30.325Z,82.82
2023-03-17T00:34:30.361Z,82.20
2023-03-17T00:35:30.388Z,82.61
2023-03-17T00:36:30.310Z,83.27
2023-03-17T00:37:30.286Z,82.34
2023-03-17T00:38:30.314Z,82.40
2023-03-17T00:39:30.287Z,83.23
2023-03-17T00:40:30.541Z,82.82
2023-03-17T00:41:30.285Z,83.09
2023-03-17T00:42:30.275Z,82.05
2023-03-17T00:43:30.756Z,81.39
2023-03-17T00:44:31.240Z,80.80
2023-03-17T00:45:30.230Z,80.98
2023-03-17T00:46:30.277Z,80.77
2023-03-17T00:47:30.232Z,80.35
2023-03-17T00:48:30.268Z,80.21
2023-03-17T00:49:30.194Z,80.32
2023-03-17T00:50:30.437Z,80.11
2023-03-17T00:51:30.227Z,79.55
2023-03-17T00:52:30.190Z,79.27
2023-03-17T00:53:30.202Z,80.15
2023-03-17T00:54:31.222Z,80.77
2023-03-17T00:55:30.209Z,81.12
2023-03-17T00:56:30.184Z,81.98
2023-03-17T00:57:30.188Z,82.40
2023-03-17T00:58:30.159Z,82.61
2023-03-17T00:59:30.161Z,82.82
2023-03-17T01:00:30.480Z,82.86
2023-03-17T01:01:30.149Z,84.31
2023-03-17T01:02:30.116Z,84.00
2023-03-17T01:03:30.138Z,84.73
2023-03-17T01:04:30.137Z,84.27
2023-03-17T01:05:30.148Z,84.11
2023-03-17T01:06:30.087Z,83.51
2023-03-17T01:07:30.117Z,83.13
2023-03-17T01:08:30.204Z,83.44
2023-03-17T01:09:30.088Z,83.17
2023-03-17T01:10:30.247Z,83.48
2023-03-17T01:11:30.103Z,83.90
2023-03-17T01:12:30.102Z,84.73
2023-03-17T01:13:30.055Z,83.69
2023-03-17T01:14:30.058Z,84.52
2023-03-17T01:15:30.056Z,84.59
2023-03-17T01:16:30.141Z,84.27
2023-03-17T01:17:30.054Z,83.82
2023-03-17T01:18:30.183Z,82.95
2023-03-17T01:19:30.037Z,83.03
2023-03-17T01:20:30.189Z,83.30
2023-03-17T01:21:30.023Z,83.54
2023-03-17T01:22:30.037Z,83.44
2023-03-17T01:23:30.050Z,83.96
2023-03-17T01:24:30.905Z,83.86
2023-03-17T01:25:29.985Z,82.78
2023-03-17T01:26:31.050Z,82.53
2023-03-17T01:27:30.007Z,83.20
2023-03-17T01:28:29.997Z,82.74
2023-03-17T01:29:29.981Z,82.53
2023-03-17T01:30:30.166Z,81.81
2023-03-17T01:31:30.041Z,81.81
2023-03-17T01:32:29.986Z,82.74
2023-03-17T01:33:29.953Z,82.53
2023-03-17T01:34:29.975Z,82.15
2023-03-17T01:35:29.994Z,83.09
2023-03-17T01:36:29.973Z,83.30
2023-03-17T01:37:29.904Z,83.09
2023-03-17T01:38:29.931Z,83.96
2023-03-17T01:39:29.923Z,84.06
2023-03-17T01:40:30.115Z,84.69
2023-03-17T01:41:29.908Z,84.59
2023-03-17T01:42:30.891Z,84.80
2023-03-17T01:43:29.893Z,84.59
2023-03-17T01:44:29.852Z,84.48
2023-03-17T01:45:29.880Z,84.69
2023-03-17T01:46:29.879Z,84.17
2023-03-17T01:47:29.832Z,84.48
2023-03-17T01:48:29.845Z,84.13
2023-03-17T01:49:29.944Z,84.34
2023-03-17T01:50:30.203Z,84.44
2023-03-17T01:51:29.835Z,84.20
2023-03-17T01:52:29.836Z,83.05
2023-03-17T01:53:29.840Z,83.16
2023-03-17T01:54:29.830Z,83.47
2023-03-17T01:55:29.815Z,82.53
2023-03-17T01:56:29.793Z,83.20
2023-03-17T01:57:29.806Z,84.55
2023-03-17T01:58:29.788Z,84.48
2023-03-17T01:59:29.819Z,84.55
2023-03-17T02:00:30.109Z,84.30
2023-03-17T02:01:29.764Z,84.51
2023-03-17T02:02:29.744Z,84.20
2023-03-17T02:03:30.328Z,83.78
2023-03-17T02:04:29.816Z,83.89
2023-03-17T02:05:29.868Z,84.09
2023-03-17T02:06:29.719Z,83.68
2023-03-17T02:07:29.770Z,82.91
2023-03-17T02:08:29.720Z,82.91
2023-03-17T02:09:29.727Z,82.18
2023-03-17T02:10:30.011Z,82.70
2023-03-17T02:11:29.671Z,83.26
2023-03-17T02:12:29.710Z,83.99
2023-03-17T02:13:30.276Z,84.09
2023-03-17T02:14:29.681Z,84.20
2023-03-17T02:15:29.660Z,83.99
2023-03-17T02:16:29.690Z,83.89
2023-03-17T02:17:29.639Z,83.47
2023-03-17T02:18:29.659Z,83.99
2023-03-17T02:19:29.638Z,83.82
2023-03-17T02:20:29.977Z,83.99
2023-03-17T02:21:29.632Z,83.99
2023-03-17T02:22:29.631Z,83.99
2023-03-17T02:23:29.687Z,83.74
2023-03-17T02:24:29.599Z,83.89
2023-03-17T02:25:29.607Z,83.47
2023-03-17T02:26:29.581Z,83.99
2023-03-17T02:27:29.595Z,84.61
2023-03-17T02:28:29.582Z,84.20
2023-03-17T02:29:29.697Z,84.72
2023-03-17T02:30:29.893Z,84.09
2023-03-17T02:31:29.550Z,84.51
2023-03-17T02:32:29.608Z,84.27
2023-03-17T02:33:29.599Z,83.84
2023-03-17T02:34:29.562Z,82.60
2023-03-17T02:35:29.529Z,82.74
2023-03-17T02:36:29.585Z,83.05
2023-03-17T02:37:29.533Z,84.41
2023-03-17T02:38:29.537Z,84.55
2023-03-17T02:39:29.529Z,84.34
2023-03-17T02:40:29.869Z,84.34
2023-03-17T02:41:29.501Z,84.44
2023-03-17T02:42:29.493Z,84.55
2023-03-17T02:43:29.485Z,84.34
2023-03-17T02:44:29.503Z,84.27
2023-03-17T02:45:29.518Z,84.52
2023-03-17T02:46:29.489Z,85.00
2023-03-17T02:47:29.494Z,85.21
2023-03-17T02:48:29.438Z,85.21
2023-03-17T02:49:29.451Z,85.42
2023-03-17T02:50:29.793Z,85.56
2023-03-17T02:51:29.451Z,85.11
2023-03-17T02:52:29.427Z,85.00
2023-03-17T02:53:29.461Z,85.21
2023-03-17T02:54:29.548Z,85.00
2023-03-17T02:55:29.395Z,85.56
2023-03-17T02:56:29.426Z,85.21
2023-03-17T02:57:29.434Z,85.31
2023-03-17T02:58:29.377Z,85.56
2023-03-17T02:59:29.383Z,86.46
2023-03-17T03:00:29.658Z,86.50
2023-03-17T03:01:29.520Z,86.50
2023-03-17T03:02:29.395Z,86.19
2023-03-17T03:03:29.349Z,86.40
2023-03-17T03:04:29.381Z,86.50
2023-03-17T03:05:29.353Z,85.25
2023-03-17T03:06:29.319Z,85.35
2023-03-17T03:07:29.324Z,85.56
2023-03-17T03:08:29.336Z,85.67
2023-03-17T03:09:29.309Z,85.35
2023-03-17T03:10:29.616Z,85.50
2023-03-17T03:11:29.351Z,85.91
2023-03-17T03:12:29.283Z,86.54
2023-03-17T03:13:29.316Z,86.37
2023-03-17T03:14:29.276Z,86.79
2023-03-17T03:15:29.343Z,87.37
2023-03-17T03:16:29.333Z,87.10
2023-03-17T03:17:29.261Z,87.10
2023-03-17T03:18:29.288Z,87.27
2023-03-17T03:19:29.230Z,86.65
2023-03-17T03:20:29.510Z,86.60
2023-03-17T03:21:29.243Z,86.54
2023-03-17T03:22:29.224Z,86.33
2023-03-17T03:23:29.207Z,86.65
2023-03-17T03:24:29.236Z,86.58
2023-03-17T03:25:29.226Z,86.79
2023-03-17T03:26:29.211Z,86.68
2023-03-17T03:27:29.175Z,87.20
2023-03-17T03:28:29.187Z,87.10
2023-03-17T03:29:29.214Z,86.99
2023-03-17T03:30:29.507Z,87.10
2023-03-17T03:31:29.242Z,87.10
2023-03-17T03:32:29.201Z,87.20
2023-03-17T03:33:29.207Z,86.99
2023-03-17T03:34:29.198Z,87.30
2023-03-17T03:35:29.139Z,87.73
2023-03-17T03:36:29.169Z,87.30
2023-03-17T03:37:29.136Z,87.62
2023-03-17T03:38:29.116Z,87.52
2023-03-17T03:39:29.095Z,87.52
2023-03-17T03:40:29.436Z,87.41
2023-03-17T03:41:29.113Z,87.06
2023-03-17T03:42:29.085Z,86.43
2023-03-17T03:43:29.917Z,86.79
2023-03-17T03:44:29.067Z,87.10
2023-03-17T03:45:29.064Z,87.20
2023-03-17T03:46:29.158Z,87.20
2023-03-17T03:47:29.103Z,87.45
2023-03-17T03:48:29.087Z,86.99
2023-03-17T03:49:29.033Z,87.30
2023-03-17T03:50:29.421Z,86.68
2023-03-17T03:51:29.018Z,86.58
2023-03-17T03:52:29.052Z,86.68
2023-03-17T03:53:29.034Z,86.68
2023-03-17T03:54:29.013Z,86.68
2023-03-17T03:55:29.002Z,86.79
2023-03-17T03:56:29.000Z,86.99
2023-03-17T03:57:28.999Z,87.20
2023-03-17T03:58:29.017Z,87.41
2023-03-17T03:59:29.035Z,86.68
2023-03-17T04:00:29.240Z,86.54
2023-03-17T04:01:28.966Z,86.54
2023-03-17T04:02:28.955Z,85.81
2023-03-17T04:03:28.969Z,85.74
2023-03-17T04:04:28.962Z,85.89
2023-03-17T04:05:28.946Z,86.37
2023-03-17T04:06:28.956Z,86.61
2023-03-17T04:07:28.923Z,86.58
2023-03-17T04:08:28.962Z,86.58
2023-03-17T04:09:28.939Z,86.47
2023-03-17T04:10:29.321Z,86.58
2023-03-17T04:11:28.942Z,85.85
2023-03-17T04:12:28.889Z,86.83
2023-03-17T04:13:28.885Z,86.51
2023-03-17T04:14:28.892Z,86.58
2023-03-17T04:15:28.895Z,86.72
2023-03-17T04:16:28.907Z,86.41
2023-03-17T04:17:28.873Z,86.79
2023-03-17T04:18:28.857Z,86.72
2023-03-17T04:19:28.854Z,86.27
2023-03-17T04:20:29.238Z,86.79
2023-03-17T04:21:28.842Z,86.37
2023-03-17T04:22:28.830Z,86.51
2023-03-17T04:23:28.980Z,86.61
2023-03-17T04:24:28.824Z,87.04
2023-03-17T04:25:28.822Z,87.20
2023-03-17T04:26:28.817Z,86.68
2023-03-17T04:27:28.806Z,86.58
2023-03-17T04:28:28.775Z,85.74
2023-03-17T04:29:28.791Z,86.79
2023-03-17T04:30:29.254Z,86.47
2023-03-17T04:31:28.835Z,86.72
2023-03-17T04:32:28.796Z,86.72
2023-03-17T04:33:28.778Z,86.41
2023-03-17T04:34:28.759Z,86.61
2023-03-17T04:35:28.755Z,87.81
2023-03-17T04:36:28.745Z,87.87
2023-03-17T04:37:28.755Z,87.87
2023-03-17T04:38:28.724Z,87.14
2023-03-17T04:39:28.758Z,87.20
2023-03-17T04:40:28.906Z,86.58
2023-03-17T04:41:28.721Z,86.54
2023-03-17T04:42:28.867Z,85.50
2023-03-17T04:43:28.781Z,85.22
2023-03-17T04:44:28.676Z,84.87
2023-03-17T04:45:28.747Z,85.12
2023-03-17T04:46:28.689Z,85.43
2023-03-17T04:47:28.727Z,85.33
2023-03-17T04:48:28.712Z,85.85
2023-03-17T04:49:28.659Z,85.64
2023-03-17T04:50:28.788Z,86.61
2023-03-17T04:51:28.662Z,86.72
2023-03-17T04:52:28.645Z,86.72
2023-03-17T04:53:28.736Z,86.83
2023-03-17T04:54:28.651Z,86.61
2023-03-17T04:55:28.641Z,86.72
2023-03-17T04:56:31.201Z,86.37
2023-03-17T04:57:28.664Z,86.79
2023-03-17T04:58:31.026Z,86.58
2023-03-17T04:59:29.732Z,86.61
2023-03-17T05:00:28.756Z,86.76
2023-03-17T05:01:28.660Z,87.20
2023-03-17T05:02:28.617Z,86.89
2023-03-17T05:03:28.952Z,86.68
2023-03-17T05:04:31.999Z,86.58
2023-03-17T05:05:29.590Z,86.47
2023-03-17T05:06:28.652Z,86.47
2023-03-17T05:07:28.580Z,85.53
2023-03-17T05:08:28.616Z,85.53
2023-03-17T05:09:28.605Z,84.98
2023-03-17T05:10:28.956Z,85.12
2023-03-17T05:11:28.555Z,85.43
2023-03-17T05:12:28.656Z,85.58
2023-03-17T05:13:28.533Z,85.53
2023-03-17T05:14:28.528Z,86.66
2023-03-17T05:15:28.585Z,86.72
2023-03-17T05:16:28.543Z,86.87
2023-03-17T05:17:28.509Z,86.61
2023-03-17T05:18:28.498Z,87.04
2023-03-17T05:19:28.524Z,86.72
2023-03-17T05:20:29.018Z,86.61
2023-03-17T05:21:28.509Z,86.58
2023-03-17T05:22:28.514Z,86.79
2023-03-17T05:23:28.504Z,85.71
2023-03-17T05:24:28.508Z,84.87
2023-03-17T05:25:28.492Z,85.26
2023-03-17T05:26:28.470Z,85.12
2023-03-17T05:27:28.469Z,85.47
2023-03-17T05:28:28.501Z,86.58
2023-03-17T05:29:28.477Z,85.89
2023-03-17T05:30:28.547Z,85.64
2023-03-17T05:31:28.488Z,86.10
2023-03-17T05:32:29.470Z,86.27
2023-03-17T05:33:28.435Z,85.85
2023-03-17T05:34:28.438Z,85.68
2023-03-17T05:35:28.425Z,86.51
2023-03-17T05:36:28.424Z,86.55
2023-03-17T05:37:28.429Z,87.28
2023-03-17T05:38:28.407Z,86.93
2023-03-17T05:39:28.475Z,86.72
2023-03-17T05:40:29.663Z,86.41
2023-03-17T05:41:28.405Z,85.64
2023-03-17T05:42:28.405Z,86.06
2023-03-17T05:43:28.448Z,85.29
2023-03-17T05:44:28.458Z,85.29
2023-03-17T05:45:28.397Z,84.63
2023-03-17T05:46:28.433Z,84.45
2023-03-17T05:47:28.366Z,84.35
2023-03-17T05:48:28.367Z,84.35
2023-03-17T05:49:28.457Z,84.45
2023-03-17T05:50:28.434Z,84.56
2023-03-17T05:51:28.317Z,84.00
2023-03-17T05:52:28.328Z,84.94
2023-03-17T05:53:28.346Z,83.69
2023-03-17T05:54:28.307Z,84.06
2023-03-17T05:55:29.279Z,83.54
2023-03-17T05:56:28.323Z,82.82
2023-03-17T05:57:28.297Z,83.23
2023-03-17T05:58:28.287Z,82.92
2023-03-17T05:59:28.327Z,82.51
2023-03-17T06:00:29.297Z,83.03
2023-03-17T06:01:28.429Z,82.89
2023-03-17T06:02:28.294Z,83.13
2023-03-17T06:03:28.299Z,83.13
2023-03-17T06:04:28.259Z,82.65
2023-03-17T06:05:28.280Z,83.62
2023-03-17T06:06:28.264Z,84.31
2023-03-17T06:07:31.186Z,84.11
2023-03-17T06:08:30.225Z,84.14
2023-03-17T06:09:28.227Z,84.50
2023-03-17T06:10:28.232Z,84.45
2023-03-17T06:11:28.229Z,84.45
2023-03-17T06:12:28.189Z,84.00
2023-03-17T06:13:28.193Z,84.59
2023-03-17T06:14:28.200Z,83.92
2023-03-17T06:15:28.346Z,83.30
2023-03-17T06:16:28.174Z,82.57
2023-03-17T06:17:28.158Z,82.57
2023-03-17T06:18:28.189Z,82.01
2023-03-17T06:19:28.188Z,82.46
2023-03-17T06:20:28.198Z,82.26
2023-03-17T06:21:28.140Z,82.15
2023-03-17T06:22:28.150Z,83.20
2023-03-17T06:23:28.141Z,82.68
2023-03-17T06:24:28.120Z,82.32
2023-03-17T06:25:28.342Z,81.98
2023-03-17T06:26:28.132Z,81.91
2023-03-17T06:27:28.136Z,82.22
2023-03-17T06:28:28.193Z,82.74
2023-03-17T06:29:28.166Z,82.89
2023-03-17T06:30:28.113Z,83.16
2023-03-17T06:31:28.199Z,82.84
2023-03-17T06:32:28.298Z,83.05
2023-03-17T06:33:28.098Z,82.60
2023-03-17T06:34:28.107Z,81.84
2023-03-17T06:35:28.162Z,81.63
2023-03-17T06:36:28.065Z,81.70
2023-03-17T06:37:28.158Z,80.87
2023-03-17T06:38:28.048Z,80.76
2023-03-17T06:39:28.092Z,81.59
2023-03-17T06:40:28.135Z,81.59
2023-03-17T06:41:28.092Z,81.45
2023-03-17T06:42:28.100Z,80.58
2023-03-17T06:43:28.124Z,80.13
2023-03-17T06:44:28.011Z,79.47
2023-03-17T06:45:27.995Z,78.75
2023-03-17T06:46:28.097Z,78.54
2023-03-17T06:47:27.975Z,78.64
2023-03-17T06:48:27.974Z,78.68
2023-03-17T06:49:27.962Z,79.20
2023-03-17T06:50:27.987Z,79.58
2023-03-17T06:51:27.973Z,79.58
2023-03-17T06:52:27.956Z,79.58
2023-03-17T06:53:27.981Z,79.58
2023-03-17T06:54:27.935Z,79.13
2023-03-17T06:55:27.951Z,79.13
2023-03-17T06:56:30.466Z,78.92
2023-03-17T06:57:28.920Z,78.78
2023-03-17T06:58:27.990Z,78.81
2023-03-17T06:59:28.824Z,79.02
2023-03-17T07:00:27.951Z,79.19
2023-03-17T07:01:27.973Z,79.19
2023-03-17T07:02:27.903Z,79.30
2023-03-17T07:03:28.760Z,78.67
2023-03-17T07:04:27.911Z,78.64
2023-03-17T07:05:27.952Z,78.43
2023-03-17T07:06:27.904Z,77.91
2023-03-17T07:07:27.866Z,77.60
2023-03-17T07:08:27.851Z,77.81
2023-03-17T07:09:27.859Z,77.81
2023-03-17T07:10:27.847Z,77.50
2023-03-17T07:11:27.862Z,77.81
2023-03-17T07:12:27.815Z,78.43
2023-03-17T07:13:27.831Z,78.50
2023-03-17T07:14:27.831Z,77.67
2023-03-17T07:15:27.801Z,77.12
2023-03-17T07:16:27.839Z,76.70
2023-03-17T07:17:27.804Z,76.39
2023-03-17T07:18:27.798Z,76.36
2023-03-17T07:19:27.791Z,76.36
2023-03-17T07:20:27.793Z,76.22
2023-03-17T07:21:27.765Z,76.08
2023-03-17T07:22:27.748Z,74.74
2023-03-17T07:23:27.725Z,74.91
2023-03-17T07:24:27.732Z,74.57
2023-03-17T07:25:27.752Z,73.95
2023-03-17T07:26:27.764Z,72.50
2023-03-17T07:27:27.711Z,72.58
2023-03-17T07:28:28.351Z,71.95
2023-03-17T07:29:27.781Z,71.64
2023-03-17T07:30:27.710Z,70.62
2023-03-17T07:31:27.767Z,69.42
2023-03-17T07:32:27.717Z,68.87
2023-03-17T07:33:27.706Z,67.94
2023-03-17T07:34:27.691Z,67.91
2023-03-17T07:35:27.704Z,67.09
2023-03-17T07:36:27.681Z,67.26
2023-03-17T07:37:27.671Z,66.31
2023-03-17T07:38:27.710Z,66.41
2023-03-17T07:39:28.249Z,64.73
2023-03-17T07:40:27.641Z,64.63
2023-03-17T07:41:27.612Z,64.50
2023-03-17T07:42:27.644Z,62.62
2023-03-17T07:43:27.608Z,61.70
2023-03-17T07:44:27.639Z,60.72
2023-03-17T07:45:27.694Z,59.30
2023-03-17T07:46:27.702Z,56.07
2023-03-17T07:47:27.578Z,53.42
2023-03-17T07:48:27.888Z,50.34
2023-03-17T07:49:40.316Z,48.71
2023-03-17T07:50:29.745Z,44.89
2023-03-17T07:51:27.631Z,44.36
2023-03-17T07:52:27.585Z,44.24
2023-03-17T07:53:27.584Z,43.29
2023-03-17T07:54:27.544Z,42.43
2023-03-17T07:55:27.530Z,41.77
2023-03-17T07:56:27.520Z,39.88
2023-03-17T07:57:27.592Z,39.95
2023-03-17T07:58:27.547Z,39.63
2023-03-17T07:59:27.534Z,38.60
2023-03-17T08:00:27.573Z,39.55
2023-03-17T08:01:27.526Z,39.51
2023-03-17T08:02:27.602Z,38.62
2023-03-17T08:03:27.607Z,39.91
2023-03-17T08:04:27.509Z,41.78
2023-03-17T08:05:27.517Z,43.23
2023-03-17T08:06:27.464Z,42.82
2023-03-17T08:07:27.473Z,41.85
2023-03-17T08:08:27.512Z,40.56
2023-03-17T08:09:27.452Z,38.50
2023-03-17T08:10:27.450Z,39.19
2023-03-17T08:11:29.359Z,37.24
2023-03-17T08:12:28.412Z,37.23
2023-03-17T08:13:27.453Z,37.95
2023-03-17T08:14:27.437Z,38.77
2023-03-17T08:15:27.457Z,37.66
2023-03-17T08:16:27.414Z,38.75
2023-03-17T08:17:27.427Z,41.04
2023-03-17T08:18:27.383Z,40.64
2023-03-17T08:19:27.426Z,42.19
2023-03-17T08:20:27.368Z,42.98
2023-03-17T08:21:27.404Z,41.00
2023-03-17T08:22:27.347Z,39.63
2023-03-17T08:23:27.396Z,39.50
2023-03-17T08:24:27.341Z,37.85
2023-03-17T08:25:27.359Z,38.50
2023-03-17T08:26:27.403Z,38.91
2023-03-17T08:27:27.317Z,38.25
2023-03-17T08:28:27.328Z,36.43
2023-03-17T08:29:27.342Z,35.89
2023-03-17T08:30:27.435Z,35.11
2023-03-17T08:31:27.346Z,34.34
2023-03-17T08:32:27.406Z,35.98
2023-03-17T08:33:27.317Z,35.33
2023-03-17T08:34:27.297Z,35.21
2023-03-17T08:35:27.358Z,34.61
2023-03-17T08:36:27.256Z,35.64
2023-03-17T08:37:27.289Z,35.82
2023-03-17T08:38:27.251Z,33.73
2023-03-17T08:39:27.236Z,33.86
2023-03-17T08:40:27.248Z,34.73
2023-03-17T08:41:27.272Z,35.36
2023-03-17T08:42:27.256Z,35.77
2023-03-17T08:43:27.253Z,35.58
2023-03-17T08:44:27.237Z,36.05
2023-03-17T08:45:27.239Z,35.06
2023-03-17T08:46:27.283Z,37.01
2023-03-17T08:47:27.199Z,36.69
2023-03-17T08:48:27.209Z,36.25
2023-03-17T08:49:27.199Z,36.95
2023-03-17T08:50:27.209Z,36.69
2023-03-17T08:51:27.201Z,37.68
2023-03-17T08:52:27.145Z,40.61
2023-03-17T08:53:27.789Z,42.05
2023-03-17T08:54:27.151Z,43.30
2023-03-17T08:55:27.214Z,43.29
2023-03-17T08:56:27.158Z,43.29
2023-03-17T08:57:27.163Z,42.13
2023-03-17T08:58:27.120Z,42.21
2023-03-17T08:59:27.106Z,41.81
2023-03-17T09:00:27.153Z,40.76
2023-03-17T09:01:27.213Z,40.74
2023-03-17T09:02:27.117Z,39.79
2023-03-17T09:03:27.137Z,39.25
2023-03-17T09:04:27.108Z,38.73
2023-03-17T09:05:27.090Z,38.43
2023-03-17T09:06:27.111Z,36.97
2023-03-17T09:07:27.095Z,37.02
2023-03-17T09:08:27.101Z,36.87
2023-03-17T09:09:27.067Z,36.18
2023-03-17T09:10:27.046Z,36.05
2023-03-17T09:11:27.072Z,36.41
2023-03-17T09:12:27.063Z,35.31
2023-03-17T09:13:27.100Z,35.98
2023-03-17T09:14:27.054Z,34.31
2023-03-17T09:15:27.042Z,33.20
2023-03-17T09:16:27.189Z,32.36
2023-03-17T09:17:27.056Z,32.88
2023-03-17T09:18:27.012Z,33.64
2023-03-17T09:19:27.022Z,33.48
2023-03-17T09:20:27.050Z,33.70
2023-03-17T09:21:27.001Z,34.11
2023-03-17T09:22:27.780Z,33.91
2023-03-17T09:23:27.001Z,34.69
2023-03-17T09:24:26.986Z,34.84
2023-03-17T09:25:26.970Z,35.64
2023-03-17T09:26:26.949Z,34.73
2023-03-17T09:27:26.975Z,35.69
2023-03-17T09:28:26.925Z,35.66
2023-03-17T09:29:26.946Z,36.18
2023-03-17T09:30:26.990Z,37.00
2023-03-17T09:31:28.058Z,35.46
2023-03-17T09:32:27.994Z,35.85
2023-03-17T09:33:26.934Z,35.61
2023-03-17T09:34:26.881Z,34.50
2023-03-17T09:35:26.868Z,34.33
2023-03-17T09:36:26.915Z,34.21
2023-03-17T09:37:26.881Z,35.76
2023-03-17T09:38:26.859Z,36.72
2023-03-17T09:39:26.869Z,37.07
2023-03-17T09:40:28.518Z,37.67
2023-03-17T09:41:27.856Z,38.45
2023-03-17T09:42:26.883Z,41.95
2023-03-17T09:43:26.867Z,41.02
2023-03-17T09:44:26.862Z,40.58
2023-03-17T09:45:26.832Z,40.20
2023-03-17T09:46:26.822Z,42.55
2023-03-17T09:47:26.791Z,42.38
2023-03-17T09:48:26.788Z,42.66
2023-03-17T09:49:26.808Z,42.55
2023-03-17T09:50:26.775Z,42.41
2023-03-17T09:51:26.778Z,42.33
2023-03-17T09:52:26.817Z,42.24
2023-03-17T09:53:26.814Z,43.08
2023-03-17T09:54:26.760Z,42.84
2023-03-17T09:55:26.757Z,42.24
2023-03-17T09:56:26.741Z,41.49
2023-03-17T09:57:26.738Z,40.33
2023-03-17T09:58:26.725Z,39.18
2023-03-17T09:59:26.784Z,40.56
2023-03-17T10:00:26.772Z,41.19
2023-03-17T10:01:26.798Z,42.40
2023-03-17T10:02:26.707Z,41.67
2023-03-17T10:03:26.781Z,41.51
2023-03-17T10:04:26.702Z,42.05
2023-03-17T10:05:26.748Z,42.27
2023-03-17T10:06:26.662Z,41.93
2023-03-17T10:07:26.655Z,40.55
2023-03-17T10:08:31.757Z,40.56
2023-03-17T10:09:28.656Z,41.43
2023-03-17T10:10:26.642Z,40.55
2023-03-17T10:11:26.648Z,42.19
2023-03-17T10:12:26.606Z,42.84
2023-03-17T10:13:26.622Z,44.09
2023-03-17T10:14:26.653Z,43.26
2023-03-17T10:15:26.652Z,42.61
2023-03-17T10:16:26.669Z,42.21
2023-03-17T10:17:26.587Z,42.84
2023-03-17T10:18:26.577Z,43.24
2023-03-17T10:19:26.588Z,43.37
2023-03-17T10:20:26.600Z,43.02
2023-03-17T10:21:26.605Z,42.61
2023-03-17T10:22:26.593Z,42.38
2023-03-17T10:23:26.556Z,42.21
2023-03-17T10:24:26.526Z,42.74
2023-03-17T10:25:26.541Z,43.16
2023-03-17T10:26:26.558Z,43.60
2023-03-17T10:27:27.364Z,43.69
2023-03-17T10:28:26.520Z,43.74
2023-03-17T10:29:26.509Z,41.99
2023-03-17T10:30:26.551Z,43.42
2023-03-17T10:31:26.517Z,43.30
2023-03-17T10:32:26.551Z,42.25
2023-03-17T10:33:26.531Z,41.43
2023-03-17T10:34:26.465Z,40.62
2023-03-17T10:35:26.851Z,40.41
2023-03-17T10:36:26.458Z,40.70
2023-03-17T10:37:26.450Z,39.97
2023-03-17T10:38:26.464Z,41.17
2023-03-17T10:39:26.456Z,39.34
2023-03-17T10:40:26.448Z,40.06
2023-03-17T10:41:26.426Z,40.79
2023-03-17T10:42:26.463Z,40.99
2023-03-17T10:43:26.450Z,40.30
2023-03-17T10:44:26.441Z,40.20
2023-03-17T10:45:26.380Z,39.64
2023-03-17T10:46:26.465Z,40.25
2023-03-17T10:47:26.389Z,39.64
2023-03-17T10:48:26.386Z,39.66
2023-03-17T10:49:26.354Z,39.84
2023-03-17T10:50:26.368Z,40.61
2023-03-17T10:51:27.308Z,38.92
2023-03-17T10:52:26.346Z,39.61
2023-03-17T10:53:26.342Z,39.29
2023-03-17T10:54:26.313Z,39.07
2023-03-17T10:55:26.328Z,39.29
2023-03-17T10:56:26.309Z,39.40
2023-03-17T10:57:26.307Z,39.14
2023-03-17T10:58:26.289Z,40.55
2023-03-17T10:59:26.335Z,41.59
2023-03-17T11:00:26.285Z,41.59
2023-03-17T11:01:26.369Z,41.59
2023-03-17T11:02:26.291Z,41.97
2023-03-17T11:03:26.301Z,40.77
2023-03-17T11:04:26.264Z,41.97
2023-03-17T11:05:26.291Z,41.87
2023-03-17T11:06:26.279Z,41.59
2023-03-17T11:07:26.253Z,41.49
2023-03-17T11:08:26.241Z,42.54
2023-03-17T11:09:26.225Z,43.24
2023-03-17T11:10:26.213Z,42.92
2023-03-17T11:11:26.253Z,42.74
2023-03-17T11:12:26.227Z,41.85
2023-03-17T11:13:26.205Z,42.88
2023-03-17T11:14:26.249Z,42.05
2023-03-17T11:15:26.183Z,42.55
2023-03-17T11:16:26.210Z,43.46
2023-03-17T11:17:26.180Z,41.67
2023-03-17T11:18:26.149Z,42.35
2023-03-17T11:19:26.153Z,41.75
2023-03-17T11:20:26.152Z,40.53
2023-03-17T11:21:26.152Z,42.33
2023-03-17T11:22:26.175Z,41.95
2023-03-17T11:23:26.146Z,42.38
2023-03-17T11:24:26.129Z,42.19
2023-03-17T11:25:26.137Z,42.07
2023-03-17T11:26:26.176Z,42.46
2023-03-17T11:27:26.163Z,42.86
2023-03-17T11:28:26.119Z,41.77
2023-03-17T11:29:26.185Z,42.15
2023-03-17T11:30:26.129Z,42.03
2023-03-17T11:31:26.121Z,42.80
2023-03-17T11:32:26.232Z,42.40
2023-03-17T11:33:26.139Z,40.45
2023-03-17T11:34:26.075Z,40.13
2023-03-17T11:35:26.052Z,40.11
2023-03-17T11:36:26.054Z,39.07
2023-03-17T11:37:26.039Z,38.39
2023-03-17T11:38:26.194Z,39.62
2023-03-17T11:39:26.058Z,40.05
2023-03-17T11:40:26.111Z,41.05
2023-03-17T11:41:26.107Z,40.85
2023-03-17T11:42:26.011Z,40.57
2023-03-17T11:43:26.093Z,41.55
2023-03-17T11:44:26.019Z,40.91
2023-03-17T11:45:25.999Z,40.49
2023-03-17T11:46:26.081Z,40.43
2023-03-17T11:47:26.016Z,39.45
2023-03-17T11:48:25.977Z,39.64
2023-03-17T11:49:25.975Z,40.85
2023-03-17T11:50:25.962Z,40.83
2023-03-17T11:51:25.973Z,40.63
2023-03-17T11:52:25.973Z,40.35
2023-03-17T11:53:26.057Z,40.55
2023-03-17T11:54:25.946Z,40.65
2023-03-17T11:55:25.967Z,40.45
2023-03-17T11:56:26.271Z,40.85
2023-03-17T11:57:25.930Z,39.32
2023-03-17T11:58:25.924Z,39.14
2023-03-17T11:59:25.977Z,39.47
2023-03-17T12:00:25.891Z,39.71
2023-03-17T12:01:25.884Z,38.42
2023-03-17T12:02:25.894Z,38.84
2023-03-17T12:03:25.925Z,39.83
2023-03-17T12:04:25.985Z,39.23
2023-03-17T12:05:25.868Z,39.12
2023-03-17T12:06:25.868Z,37.13
2023-03-17T12:07:25.867Z,38.53
2023-03-17T12:08:25.847Z,36.50
2023-03-17T12:09:25.872Z,36.32
2023-03-17T12:10:25.866Z,37.55
2023-03-17T12:11:25.841Z,38.22
2023-03-17T12:12:25.866Z,38.66
2023-03-17T12:13:25.828Z,39.14
2023-03-17T12:14:25.811Z,38.56
2023-03-17T12:15:25.818Z,38.86
2023-03-17T12:16:25.822Z,38.14
2023-03-17T12:17:27.318Z,38.84
2023-03-17T12:18:26.814Z,38.44
2023-03-17T12:19:25.785Z,39.26
2023-03-17T12:20:25.818Z,38.76
2023-03-17T12:21:25.784Z,39.08
2023-03-17T12:22:25.810Z,39.18
2023-03-17T12:23:25.810Z,39.50
2023-03-17T12:24:25.780Z,40.11
2023-03-17T12:25:25.788Z,39.50
2023-03-17T12:26:25.764Z,38.18
2023-03-17T12:27:25.776Z,39.50
2023-03-17T12:28:25.776Z,38.79
2023-03-17T12:29:25.751Z,39.88
2023-03-17T12:30:25.740Z,39.12
2023-03-17T12:31:25.812Z,39.84
2023-03-17T12:32:25.782Z,40.53
2023-03-17T12:33:25.736Z,40.02
2023-03-17T12:34:25.733Z,39.94
2023-03-17T12:35:25.702Z,40.75
2023-03-17T12:36:25.681Z,40.84
2023-03-17T12:37:25.689Z,39.90
2023-03-17T12:38:25.689Z,39.38
2023-03-17T12:39:25.703Z,39.50
2023-03-17T12:40:26.270Z,40.50
2023-03-17T12:41:26.696Z,40.73
2023-03-17T12:42:25.687Z,40.62
2023-03-17T12:43:25.671Z,40.30
2023-03-17T12:44:25.694Z,39.42
2023-03-17T12:45:25.665Z,40.64
2023-03-17T12:46:25.726Z,40.14
2023-03-17T12:47:25.782Z,41.75
2023-03-17T12:48:25.622Z,40.75
2023-03-17T12:49:25.627Z,41.37
2023-03-17T12:50:25.591Z,40.84
2023-03-17T12:51:25.614Z,41.65
2023-03-17T12:52:26.368Z,42.33